Time;durP1;ratioP1;P1;durP2;ratioP2;P2;SDS_P1;SDS_P2;PMS_P1;PMS_P2;Temp;Humidity;BMP_temperature;BMP_pressure;BME280_temperature;BME280_humidity;BME280_pressure;Samples;Min_cycle;Max_cycle;Signal;HPM_P1;HPM_P2
2020/12/20 00:01:37;;;;;;;;;;;;;;;;;;5045292;28;14368;-45
2020/12/20 00:04:02;;;;;;;;;;;;;;;;;;5049964;28;4374;-53
2020/12/20 00:06:28;;;;;;;;;;;;;;;;;;5043728;28;9049;-52
2020/12/20 00:08:53;;;;;;;;;;;;;;;;;;5046553;28;17552;-56
2020/12/20 00:11:18;;;;;;;;;;;;;;;;;;5046549;28;8745;-47
2020/12/20 00:13:43;;;;;;;;;;;;;;;;;;5047278;28;8897;-53
2020/12/20 00:16:08;;;;;;;;;;;;;;;;;;5052037;28;4159;-52
2020/12/20 00:18:34;;;;;;;;;;;;;;;;;;5045221;28;14349;-53
2020/12/20 00:20:59;;;;;;;;;;;;;;;;;;5046477;28;14599;-52
2020/12/20 00:23:24;;;;;;;;;;;;;;;;;;5044444;28;7807;-55
2020/12/20 00:25:49;;;;;;;;;;;;;;;;;;5045867;28;10538;-52
2020/12/20 00:28:15;;;;;;;;;;;;;;;;;;5049045;28;4881;-56
2020/12/20 00:30:40;;;;;;;;;;;;;;;;;;5027959;28;12128;-55
2020/12/20 00:33:05;;;;;;;;;;;;;;;;;;5043413;28;16672;-50
2020/12/20 00:35:30;;;;;;;;;;;;;;;;;;5046115;28;8753;-54
2020/12/20 00:37:56;;;;;;;;;;;;;;;;;;5046882;28;14311;-53
2020/12/20 00:40:21;;;;;;;;;;;;;;;;;;5045962;28;14130;-48
2020/12/20 00:42:47;;;;;;;;;;;;;;;;;;5042245;28;10479;-51
2020/12/20 00:45:12;;;;;;;;;;;;;;;;;;5023892;28;15707;-52
2020/12/20 00:47:37;;;;;;;;;;;;;;;;;;5024895;28;14177;-56
2020/12/20 00:50:03;;;;;;;;;;;;;;;;;;5026361;28;14631;-49
2020/12/20 00:52:28;;;;;;;;;;;;;;;;;;5026093;28;8083;-51
2020/12/20 00:54:53;;;;;;;;;;;;;;;;;;5027073;28;6902;-48
2020/12/20 00:57:19;;;;;;;;;;;;;;;;;;5026554;28;14128;-51
2020/12/20 00:59:44;;;;;;;;;;;;;;;;;;5024496;28;15600;-51
2020/12/20 01:02:10;;;;;;;;;;;;;;;;;;5026504;28;10056;-53
2020/12/20 01:04:35;;;;;;;;;;;;;;;;;;5019808;28;9573;-56
2020/12/20 01:07:01;;;;;;;;;;;;;;;;;;5033558;28;4276;-51
2020/12/20 01:09:26;;;;;;;;;;;;;;;;;;5028393;28;10422;-52
2020/12/20 01:11:52;;;;;;;;;;;;;;;;;;5022934;28;9927;-48
2020/12/20 01:14:17;;;;;;;;;;;;;;;;;;5028310;28;5777;-50
2020/12/20 01:16:42;;;;;;;;;;;;;;;;;;5028371;28;10798;-54
2020/12/20 01:19:08;;;;;;;;;;;;;;;;;;5032860;28;4120;-48
2020/12/20 01:21:34;;;;;;;;;;;;;;;;;;5027449;28;14097;-50
2020/12/20 01:23:59;;;;;;;;;;;;;;;;;;5028390;28;10802;-51
2020/12/20 01:26:28;;;;;;;;;;;;;;;;;;5026601;28;10345;-50
2020/12/20 01:28:53;;;;;;;;;;;;;;;;;;5030052;28;13597;-56
2020/12/20 01:31:19;;;;;;;;;;;;;;;;;;5030766;28;16500;-50
2020/12/20 01:33:44;;;;;;;;;;;;;;;;;;5033027;28;8185;-46
2020/12/20 01:36:10;;;;;;;;;;;;;;;;;;5028643;28;14613;-50
2020/12/20 01:38:36;;;;;;;;;;;;;;;;;;5029227;28;9258;-55
2020/12/20 01:41:01;;;;;;;;;;;;;;;;;;5032835;28;9612;-51
2020/12/20 01:43:38;;;;;;;;;;;;;;;;;;5032188;28;8283;-49
2020/12/20 01:46:04;;;;;;;;;;;;;;;;;;5038097;28;3977;-55
2020/12/20 01:48:29;;;;;;;;;;;;;;;;;;5033816;28;10694;-44
2020/12/20 01:50:54;;;;;;;;;;;;;;;;;;5028786;28;14940;-47
2020/12/20 01:53:20;;;;;;;;;;;;;;;;;;5030358;28;10535;-48
2020/12/20 01:55:46;;;;;;;;;;;;;;;;;;5030874;28;9803;-51
2020/12/20 01:58:11;;;;;;;;;;;;;;;;;;5033273;28;4214;-50
2020/12/20 02:00:36;;;;;;;;;;;;;;;;;;5030780;28;13546;-48
2020/12/20 02:03:02;;;;;;;;;;;;;;;;;;5028223;28;16158;-53
2020/12/20 02:05:27;;;;;;;;;;;;;;;;;;5031547;28;10474;-55
2020/12/20 02:07:52;;;;;;;;;;;;;;;;;;5031500;28;15059;-55
2020/12/20 02:10:17;;;;;;;;;;;;;;;;;;5042935;28;8391;-52
2020/12/20 02:12:44;;;;;;;;;;;;;;;;;;5030998;28;9327;-50
2020/12/20 02:15:09;;;;;;;;;;;;;;;;;;5034076;28;16300;-50
2020/12/20 02:17:34;;;;;;;;;;;;;;;;;;5030420;28;14248;-51
2020/12/20 02:20:00;;;;;;;;;;;;;;;;;;5030447;28;12526;-51
2020/12/20 02:22:25;;;;;;;;;;;;;;;;;;5040202;28;9819;-48
2020/12/20 02:24:50;;;;;;;;;;;;;;;;;;5033159;28;3952;-56
2020/12/20 02:27:15;;;;;;;;;;;;;;;;;;5028993;28;15668;-50
2020/12/20 02:29:41;;;;;;;;;;;;;;;;;;5029911;28;13891;-48
2020/12/20 02:32:06;;;;;;;;;;;;;;;;;;5030511;28;8474;-56
2020/12/20 02:34:31;;;;;;;;;;;;;;;;;;5022709;28;13743;-44
2020/12/20 02:36:56;;;;;;;;;;;;;;;;;;5033011;28;7265;-48
2020/12/20 02:39:22;;;;;;;;;;;;;;;;;;5028484;28;16094;-49
2020/12/20 02:41:47;;;;;;;;;;;;;;;;;;5030114;28;7744;-55
2020/12/20 02:44:12;;;;;;;;;;;;;;;;;;5034089;28;13562;-55
2020/12/20 02:46:38;;;;;;;;;;;;;;;;;;5041817;28;10747;-50
2020/12/20 02:49:03;;;;;;;;;;;;;;;;;;5039604;28;4296;-50
2020/12/20 02:51:28;;;;;;;;;;;;;;;;;;5031942;28;9082;-52
2020/12/20 02:53:53;;;;;;;;;;;;;;;;;;5029657;28;14427;-50
2020/12/20 02:56:19;;;;;;;;;;;;;;;;;;5032875;28;14602;-55
2020/12/20 02:58:45;;;;;;;;;;;;;;;;;;5020098;28;15526;-56
2020/12/20 03:01:11;;;;;;;;;;;;;;;;;;5031841;28;4944;-49
2020/12/20 03:03:36;;;;;;;;;;;;;;;;;;5035976;28;8195;-52
2020/12/20 03:06:01;;;;;;;;;;;;;;;;;;5033335;28;9531;-56
2020/12/20 03:08:26;;;;;;;;;;;;;;;;;;5031513;28;6992;-54
2020/12/20 03:10:52;;;;;;;;;;;;;;;;;;5020013;28;10011;-51
2020/12/20 03:13:17;;;;;;;;;;;;;;;;;;5031346;28;4168;-49
2020/12/20 03:15:43;;;;;;;;;;;;;;;;;;5035485;28;14134;-46
2020/12/20 03:18:08;;;;;;;;;;;;;;;;;;5034485;28;15008;-49
2020/12/20 03:20:34;;;;;;;;;;;;;;;;;;5029469;28;13803;-53
2020/12/20 03:22:59;;;;;;;;;;;;;;;;;;5015480;28;10814;-53
2020/12/20 03:25:25;;;;;;;;;;;;;;;;;;5035443;28;7268;-53
2020/12/20 03:27:50;;;;;;;;;;;;;;;;;;5027424;28;11305;-55
2020/12/20 03:30:15;;;;;;;;;;;;;;;;;;5023101;28;15663;-47
2020/12/20 03:32:41;;;;;;;;;;;;;;;;;;5036245;28;15080;-55
2020/12/20 03:35:06;;;;;;;;;;;;;;;;;;5022219;28;15813;-54
2020/12/20 03:37:32;;;;;;;;;;;;;;;;;;5037587;28;11748;-54
2020/12/20 03:39:57;;;;;;;;;;;;;;;;;;5019776;28;7100;-58
2020/12/20 03:42:22;;;;;;;;;;;;;;;;;;5017714;28;9510;-52
2020/12/20 03:44:47;;;;;;;;;;;;;;;;;;5008426;28;15558;-53
2020/12/20 03:47:13;;;;;;;;;;;;;;;;;;5008752;28;13124;-51
2020/12/20 03:49:38;;;;;;;;;;;;;;;;;;5012628;28;9811;-51
2020/12/20 03:52:03;;;;;;;;;;;;;;;;;;5011739;28;4218;-50
2020/12/20 03:54:28;;;;;;;;;;;;;;;;;;5011806;28;16580;-51
2020/12/20 03:56:55;;;;;;;;;;;;;;;;;;5011394;28;10767;-51
2020/12/20 03:59:21;;;;;;;;;;;;;;;;;;5017374;28;7409;-49
2020/12/20 04:01:46;;;;;;;;;;;;;;;;;;5008997;28;10074;-53
2020/12/20 04:04:11;;;;;;;;;;;;;;;;;;5013467;28;4179;-58
2020/12/20 04:06:36;;;;;;;;;;;;;;;;;;5013539;28;17197;-49
2020/12/20 04:09:02;;;;;;;;;;;;;;;;;;5013474;28;11529;-55
2020/12/20 04:11:27;;;;;;;;;;;;;;;;;;5019647;28;15535;-51
2020/12/20 04:13:52;;;;;;;;;;;;;;;;;;5008247;28;6811;-57
2020/12/20 04:16:17;;;;;;;;;;;;;;;;;;5011745;28;4298;-57
2020/12/20 04:18:43;;;;;;;;;;;;;;;;;;5011119;28;8571;-52
2020/12/20 04:21:08;;;;;;;;;;;;;;;;;;5012151;28;13016;-51
2020/12/20 04:23:33;;;;;;;;;;;;;;;;;;5013374;28;12907;-56
2020/12/20 04:25:59;;;;;;;;;;;;;;;;;;5016904;28;9246;-57
2020/12/20 04:28:24;;;;;;;;;;;;;;;;;;5008322;28;10517;-50
2020/12/20 04:30:51;;;;;;;;;;;;;;;;;;5010701;28;6930;-57
2020/12/20 04:33:16;;;;;;;;;;;;;;;;;;5009927;28;7778;-55
2020/12/20 04:35:42;;;;;;;;;;;;;;;;;;5009204;28;17108;-57
2020/12/20 04:38:07;;;;;;;;;;;;;;;;;;5008721;28;14431;-52
2020/12/20 04:40:32;;;;;;;;;;;;;;;;;;5009965;28;11484;-52
2020/12/20 04:42:58;;;;;;;;;;;;;;;;;;5021684;28;6996;-57
2020/12/20 04:45:24;;;;;;;;;;;;;;;;;;5033477;28;14531;-53
2020/12/20 04:47:51;;;;;;;;;;;;;;;;;;5032301;28;14277;-52
2020/12/20 04:50:17;;;;;;;;;;;;;;;;;;5037571;28;10663;-50
2020/12/20 04:52:43;;;;;;;;;;;;;;;;;;5041680;28;14304;-55
2020/12/20 04:55:08;;;;;;;;;;;;;;;;;;5035142;28;4239;-58
2020/12/20 04:57:34;;;;;;;;;;;;;;;;;;5033792;28;15748;-49
2020/12/20 05:00:01;;;;;;;;;;;;;;;;;;5031841;28;14244;-50
2020/12/20 05:02:29;;;;;;;;;;;;;;;;;;5027964;28;10448;-55
2020/12/20 05:04:54;;;;;;;;;;;;;;;;;;5034472;28;14564;-48
2020/12/20 05:07:19;;;;;;;;;;;;;;;;;;5034699;28;4164;-55
2020/12/20 05:09:48;;;;;;;;;;;;;;;;;;5035230;28;9784;-55
2020/12/20 05:12:26;;;;;;;;;;;;;;;;;;5032534;28;15763;-54
2020/12/20 05:14:51;;;;;;;;;;;;;;;;;;5031719;28;15413;-56
2020/12/20 05:17:17;;;;;;;;;;;;;;;;;;5031159;28;15841;-47
2020/12/20 05:19:42;;;;;;;;;;;;;;;;;;5031784;28;12136;-54
2020/12/20 05:22:15;;;;;;;;;;;;;;;;;;5022109;28;4213;-54
2020/12/20 05:24:41;;;;;;;;;;;;;;;;;;5031300;28;14467;-52
2020/12/20 05:27:18;;;;;;;;;;;;;;;;;;5031883;28;10871;-59
2020/12/20 05:29:43;;;;;;;;;;;;;;;;;;5018223;28;9559;-52
2020/12/20 05:32:22;;;;;;;;;;;;;;;;;;5030153;28;13630;-61
2020/12/20 05:35:03;;;;;;;;;;;;;;;;;;5036319;28;15371;-55
2020/12/20 05:37:29;;;;;;;;;;;;;;;;;;5019156;28;14106;-53
2020/12/20 05:39:55;;;;;;;;;;;;;;;;;;5033389;28;6909;-48
2020/12/20 05:42:21;;;;;;;;;;;;;;;;;;5032771;28;13150;-47
2020/12/20 05:44:46;;;;;;;;;;;;;;;;;;5031775;28;15312;-51
2020/12/20 05:47:13;;;;;;;;;;;;;;;;;;5040911;28;10751;-52
2020/12/20 05:49:38;;;;;;;;;;;;;;;;;;5042823;28;9767;-56
2020/12/20 05:52:08;;;;;;;;;;;;;;;;;;5018956;28;3985;-53
2020/12/20 05:54:35;;;;;;;;;;;;;;;;;;5028430;28;10007;-53
2020/12/20 05:57:06;;;;;;;;;;;;;;;;;;5029236;28;9853;-45
2020/12/20 05:59:32;;;;;;;;;;;;;;;;;;5025211;28;10338;-60
2020/12/20 06:01:57;;;;;;;;;;;;;;;;;;5036356;28;14600;-52
2020/12/20 06:04:23;;;;;;;;;;;;;;;;;;5030748;28;14943;-53
2020/12/20 06:06:51;;;;;;;;;;;;;;;;;;5029829;28;7512;-53
2020/12/20 06:09:17;;;;;;;;;;;;;;;;;;5029455;28;9412;-48
2020/12/20 06:11:47;;;;;;;;;;;;;;;;;;5029063;28;15252;-52
2020/12/20 06:14:14;;;;;;;;;;;;;;;;;;5030990;28;10797;-59
2020/12/20 06:16:40;;;;;;;;;;;;;;;;;;5028794;28;16674;-51
2020/12/20 06:19:08;;;;;;;;;;;;;;;;;;5012418;28;4170;-47
2020/12/20 06:21:53;;;;;;;;;;;;;;;;;;5029471;28;14868;-52
2020/12/20 06:24:21;;;;;;;;;;;;;;;;;;5026732;28;10765;-55
2020/12/20 06:26:49;;;;;;;;;;;;;;;;;;5030373;28;9427;-55
2020/12/20 06:29:18;;;;;;;;;;;;;;;;;;5038085;28;13006;-51
2020/12/20 06:31:43;;;;;;;;;;;;;;;;;;5018521;28;8186;-47
2020/12/20 06:34:13;;;;;;;;;;;;;;;;;;5035049;28;4164;-52
2020/12/20 06:36:39;;;;;;;;;;;;;;;;;;5035434;28;14570;-60
2020/12/20 06:39:04;;;;;;;;;;;;;;;;;;5035221;28;12529;-45
2020/12/20 06:41:33;;;;;;;;;;;;;;;;;;5027769;28;14989;-57
2020/12/20 06:43:58;;;;;;;;;;;;;;;;;;5033258;28;7309;-54
2020/12/20 06:46:37;;;;;;;;;;;;;;;;;;5036490;28;11503;-50
2020/12/20 06:49:22;;;;;;;;;;;;;;;;;;5027281;28;4032;-59
2020/12/20 06:51:48;;;;;;;;;;;;;;;;;;5030561;28;9565;-55
2020/12/20 06:54:23;;;;;;;;;;;;;;;;;;5031222;28;14853;-56
2020/12/20 06:57:07;;;;;;;;;;;;;;;;;;5027579;28;15669;-45
2020/12/20 06:59:43;;;;;;;;;;;;;;;;;;5030807;28;9679;-48
2020/12/20 07:02:08;;;;;;;;;;;;;;;;;;5030227;28;10258;-51
2020/12/20 07:04:40;;;;;;;;;;;;;;;;;;5039914;28;7813;-54
2020/12/20 07:07:06;;;;;;;;;;;;;;;;;;5022658;28;4281;-48
2020/12/20 07:09:32;;;;;;;;;;;;;;;;;;5029876;28;14209;-52
2020/12/20 07:11:57;;;;;;;;;;;;;;;;;;5028264;28;9263;-52
2020/12/20 07:14:22;;;;;;;;;;;;;;;;;;5035449;28;8624;-53
2020/12/20 07:16:48;;;;;;;;;;;;;;;;;;5033405;28;16002;-57
2020/12/20 07:19:24;;;;;;;;;;;;;;;;;;5031342;28;4172;-55
2020/12/20 07:21:52;;;;;;;;;;;;;;;;;;5031154;28;9675;-50
2020/12/20 07:24:43;;;;;;;;;;;;;;;;;;5030386;28;9635;-49
2020/12/20 07:27:08;;;;;;;;;;;;;;;;;;5027686;28;11477;-56
2020/12/20 07:29:38;;;;;;;;;;;;;;;;;;5038490;28;16387;-52
2020/12/20 07:32:04;;;;;;;;;;;;;;;;;;5028474;28;9589;-57
2020/12/20 07:34:30;;;;;;;;;;;;;;;;;;5029691;28;15259;-45
2020/12/20 07:36:55;;;;;;;;;;;;;;;;;;5031510;28;7150;-56
2020/12/20 07:39:21;;;;;;;;;;;;;;;;;;5031713;28;11569;-54
2020/12/20 07:41:46;;;;;;;;;;;;;;;;;;5038171;28;11901;-56
2020/12/20 07:44:12;;;;;;;;;;;;;;;;;;5026183;28;14843;-54
2020/12/20 07:46:38;;;;;;;;;;;;;;;;;;5028759;28;13867;-51
2020/12/20 07:49:07;;;;;;;;;;;;;;;;;;5031806;28;3889;-49
2020/12/20 07:51:32;;;;;;;;;;;;;;;;;;5029654;28;16107;-53
2020/12/20 07:53:58;;;;;;;;;;;;;;;;;;5030488;28;9074;-51
2020/12/20 07:56:28;;;;;;;;;;;;;;;;;;5030505;28;8491;-50
2020/12/20 07:59:14;;;;;;;;;;;;;;;;;;5026110;28;16271;-56
2020/12/20 08:01:40;;;;;;;;;;;;;;;;;;5027946;28;13988;-62
2020/12/20 08:04:08;;;;;;;;;;;;;;;;;;5033329;28;4833;-50
2020/12/20 08:06:59;;;;;;;;;;;;;;;;;;5028896;28;15571;-56
2020/12/20 08:09:25;;;;;;;;;;;;;;;;;;5029750;28;12077;-56
2020/12/20 08:11:51;;;;;;;;;;;;;;;;;;5014028;28;16425;-49
2020/12/20 08:14:17;;;;;;;;;;;;;;;;;;5028648;28;9489;-60
2020/12/20 08:16:43;;;;;;;;;;;;;;;;;;5028515;28;14005;-63
2020/12/20 08:19:21;;;;;;;;;;;;;;;;;;5033560;28;4216;-54
2020/12/20 08:22:05;;;;;;;;;;;;;;;;;;5028623;28;17601;-54
2020/12/20 08:24:50;;;;;;;;;;;;;;;;;;5017554;28;9727;-53
2020/12/20 08:27:25;;;;;;;;;;;;;;;;;;5023753;28;15568;-48
2020/12/20 08:29:57;;;;;;;;;;;;;;;;;;5028028;28;14455;-51
2020/12/20 08:32:23;;;;;;;;;;;;;;;;;;5022877;28;11218;-53
2020/12/20 08:34:49;;;;;;;;;;;;;;;;;;5026938;28;8638;-50
2020/12/20 08:37:15;;;;;;;;;;;;;;;;;;5029453;28;4161;-56
2020/12/20 08:39:41;;;;;;;;;;;;;;;;;;5027801;28;11745;-50
2020/12/20 08:42:08;;;;;;;;;;;;;;;;;;5026173;28;11388;-53
2020/12/20 08:44:33;;;;;;;;;;;;;;;;;;5026392;28;15175;-58
2020/12/20 08:47:06;;;;;;;;;;;;;;;;;;5028325;28;15076;-52
2020/12/20 08:49:31;;;;;;;;;;;;;;;;;;5037140;28;15443;-49
2020/12/20 08:52:04;;;;;;;;;;;;;;;;;;5019982;28;6933;-48
2020/12/20 08:54:30;;;;;;;;;;;;;;;;;;5026463;28;13362;-52
2020/12/20 08:56:56;;;;;;;;;;;;;;;;;;5026938;28;9599;-57
2020/12/20 08:59:57;;;;;;;;;;;;;;;;;;5030465;28;12978;-47
2020/12/20 09:02:23;;;;;;;;;;;;;;;;;;4985164;28;9500;-54
2020/12/20 09:04:55;;;;;;;;;;;;;;;;;;4983245;28;13013;-52
2020/12/20 09:07:29;;;;;;;;;;;;;;;;;;4986902;28;4145;-57
2020/12/20 09:10:03;;;;;;;;;;;;;;;;;;4962003;28;9292;-59
2020/12/20 09:12:29;;;;;;;;;;;;;;;;;;4982539;28;9572;-52
2020/12/20 09:14:59;;;;;;;;;;;;;;;;;;4968456;28;14219;-53
2020/12/20 09:17:36;;;;;;;;;;;;;;;;;;4985493;28;14508;-51
2020/12/20 09:20:03;;;;;;;;;;;;;;;;;;4979785;28;14536;-58
2020/12/20 09:22:40;;;;;;;;;;;;;;;;;;4977494;28;15513;-49
2020/12/20 09:25:05;;;;;;;;;;;;;;;;;;4983119;28;4047;-49
2020/12/20 09:27:31;;;;;;;;;;;;;;;;;;4982835;28;12831;-45
2020/12/20 09:29:56;;;;;;;;;;;;;;;;;;4985164;28;10289;-50
2020/12/20 09:32:21;;;;;;;;;;;;;;;;;;4989648;28;15601;-58
2020/12/20 09:34:47;;;;;;;;;;;;;;;;;;4987087;28;10179;-54
2020/12/20 09:37:12;;;;;;;;;;;;;;;;;;5029201;28;5167;-48
2020/12/20 09:39:57;;;;;;;;;;;;;;;;;;5029618;28;12343;-48
2020/12/20 09:42:23;;;;;;;;;;;;;;;;;;5027740;28;9292;-61
2020/12/20 09:44:48;;;;;;;;;;;;;;;;;;5028701;28;15035;-55
2020/12/20 09:47:14;;;;;;;;;;;;;;;;;;5027898;28;13390;-61
2020/12/20 09:49:39;;;;;;;;;;;;;;;;;;5030982;28;11284;-56
2020/12/20 09:52:04;;;;;;;;;;;;;;;;;;5029144;28;9813;-57
2020/12/20 09:54:29;;;;;;;;;;;;;;;;;;5034070;28;8854;-51
2020/12/20 09:56:55;;;;;;;;;;;;;;;;;;5028849;28;7933;-56
2020/12/20 09:59:20;;;;;;;;;;;;;;;;;;5035792;28;11054;-52
2020/12/20 10:01:45;;;;;;;;;;;;;;;;;;5025189;28;7781;-50
2020/12/20 10:04:11;;;;;;;;;;;;;;;;;;5031448;28;3878;-49
2020/12/20 10:06:36;;;;;;;;;;;;;;;;;;5028577;28;13731;-56
2020/12/20 10:09:01;;;;;;;;;;;;;;;;;;5030497;28;12986;-58
2020/12/20 10:11:26;;;;;;;;;;;;;;;;;;5028056;28;14379;-56
2020/12/20 10:13:52;;;;;;;;;;;;;;;;;;5024329;28;6774;-51
2020/12/20 10:16:18;;;;;;;;;;;;;;;;;;5028108;28;3970;-52
2020/12/20 10:18:45;;;;;;;;;;;;;;;;;;5025150;28;13634;-58
2020/12/20 10:21:12;;;;;;;;;;;;;;;;;;5032431;28;9410;-54
2020/12/20 10:23:38;;;;;;;;;;;;;;;;;;5029852;28;9667;-52
2020/12/20 10:26:03;;;;;;;;;;;;;;;;;;5033090;28;13695;-53
2020/12/20 10:28:28;;;;;;;;;;;;;;;;;;5029106;28;7518;-54
2020/12/20 10:30:53;;;;;;;;;;;;;;;;;;5022378;28;8324;-49
2020/12/20 10:33:19;;;;;;;;;;;;;;;;;;5025798;28;14595;-53
2020/12/20 10:35:44;;;;;;;;;;;;;;;;;;5022353;28;15656;-51
2020/12/20 10:38:09;;;;;;;;;;;;;;;;;;5020630;28;15233;-49
2020/12/20 10:40:34;;;;;;;;;;;;;;;;;;5029462;28;14313;-55
2020/12/20 10:43:00;;;;;;;;;;;;;;;;;;5035041;28;11905;-55
2020/12/20 10:45:25;;;;;;;;;;;;;;;;;;5033696;28;13802;-49
2020/12/20 10:47:50;;;;;;;;;;;;;;;;;;5037889;28;11792;-57
2020/12/20 10:50:17;;;;;;;;;;;;;;;;;;5027206;28;13096;-58
2020/12/20 10:52:42;;;;;;;;;;;;;;;;;;5040856;28;12179;-54
2020/12/20 10:55:08;;;;;;;;;;;;;;;;;;5039161;28;4153;-47
2020/12/20 10:57:34;;;;;;;;;;;;;;;;;;5027022;28;10894;-55
2020/12/20 11:00:00;;;;;;;;;;;;;;;;;;5020142;28;7487;-54
2020/12/20 11:02:25;;;;;;;;;;;;;;;;;;5033819;28;15457;-54
2020/12/20 11:04:50;;;;;;;;;;;;;;;;;;5030062;28;10701;-55
2020/12/20 11:07:16;;;;;;;;;;;;;;;;;;5029885;28;4192;-49
2020/12/20 11:09:42;;;;;;;;;;;;;;;;;;5027981;28;15503;-54
2020/12/20 11:12:07;;;;;;;;;;;;;;;;;;5026996;28;16561;-51
2020/12/20 11:14:32;;;;;;;;;;;;;;;;;;5031659;28;14775;-53
2020/12/20 11:16:58;;;;;;;;;;;;;;;;;;5027939;28;14721;-50
2020/12/20 11:19:23;;;;;;;;;;;;;;;;;;5034850;28;3824;-54
2020/12/20 11:21:49;;;;;;;;;;;;;;;;;;5022938;28;10820;-58
2020/12/20 11:24:15;;;;;;;;;;;;;;;;;;5033856;28;7708;-52
2020/12/20 11:26:41;;;;;;;;;;;;;;;;;;5026064;28;9443;-49
2020/12/20 11:29:07;;;;;;;;;;;;;;;;;;5023773;28;14616;-48
2020/12/20 11:31:32;;;;;;;;;;;;;;;;;;5024295;28;12808;-55
2020/12/20 11:33:57;;;;;;;;;;;;;;;;;;5035382;28;6992;-48
2020/12/20 11:36:23;;;;;;;;;;;;;;;;;;5035558;28;14344;-57
2020/12/20 11:38:49;;;;;;;;;;;;;;;;;;5027757;28;12809;-52
2020/12/20 11:41:22;;;;;;;;;;;;;;;;;;5027908;28;13429;-50
2020/12/20 11:43:48;;;;;;;;;;;;;;;;;;5031247;28;12805;-53
2020/12/20 11:46:13;;;;;;;;;;;;;;;;;;5035862;28;4175;-56
2020/12/20 11:48:38;;;;;;;;;;;;;;;;;;5026403;28;16365;-54
2020/12/20 11:51:04;;;;;;;;;;;;;;;;;;5025884;28;9606;-52
2020/12/20 11:53:29;;;;;;;;;;;;;;;;;;5035176;28;10388;-55
2020/12/20 11:55:54;;;;;;;;;;;;;;;;;;5025798;28;8895;-48
2020/12/20 11:58:20;;;;;;;;;;;;;;;;;;5039115;28;4139;-54
2020/12/20 12:00:46;;;;;;;;;;;;;;;;;;5027633;28;9416;-51
2020/12/20 12:03:13;;;;;;;;;;;;;;;;;;5029353;28;11520;-53
2020/12/20 12:05:38;;;;;;;;;;;;;;;;;;5033018;28;14703;-51
2020/12/20 12:08:05;;;;;;;;;;;;;;;;;;5026999;28;13789;-49
2020/12/20 12:10:31;;;;;;;;;;;;;;;;;;5027481;28;12427;-52
2020/12/20 12:12:56;;;;;;;;;;;;;;;;;;5029592;28;6940;-50
2020/12/20 12:15:21;;;;;;;;;;;;;;;;;;5030689;28;15497;-57
2020/12/20 12:17:47;;;;;;;;;;;;;;;;;;5023562;28;13182;-48
2020/12/20 12:20:12;;;;;;;;;;;;;;;;;;5026442;28;13780;-58
2020/12/20 12:22:37;;;;;;;;;;;;;;;;;;5030304;28;11787;-52
2020/12/20 12:25:02;;;;;;;;;;;;;;;;;;5028886;28;6939;-57
2020/12/20 12:27:28;;;;;;;;;;;;;;;;;;5025690;28;13321;-53
2020/12/20 12:29:53;;;;;;;;;;;;;;;;;;5024643;28;13587;-52
2020/12/20 12:32:18;;;;;;;;;;;;;;;;;;5027954;28;9941;-52
2020/12/20 12:34:44;;;;;;;;;;;;;;;;;;5026127;28;14620;-50
2020/12/20 12:37:09;;;;;;;;;;;;;;;;;;5019906;28;4230;-51
2020/12/20 12:39:34;;;;;;;;;;;;;;;;;;5022249;28;14974;-47
2020/12/20 12:42:03;;;;;;;;;;;;;;;;;;5026873;28;9144;-53
2020/12/20 12:44:28;;;;;;;;;;;;;;;;;;5025882;28;14612;-51
2020/12/20 12:46:53;;;;;;;;;;;;;;;;;;5036430;28;9539;-54
2020/12/20 12:49:19;;;;;;;;;;;;;;;;;;5033053;28;4196;-58
2020/12/20 12:51:44;;;;;;;;;;;;;;;;;;5026425;28;12179;-52
2020/12/20 12:54:09;;;;;;;;;;;;;;;;;;5027703;28;11361;-56
2020/12/20 12:56:35;;;;;;;;;;;;;;;;;;5026943;28;13026;-54
2020/12/20 12:59:00;;;;;;;;;;;;;;;;;;5027989;28;14387;-50
2020/12/20 13:01:29;;;;;;;;;;;;;;;;;;5029228;28;4168;-53
2020/12/20 13:03:55;;;;;;;;;;;;;;;;;;5026074;28;9283;-54
2020/12/20 13:06:20;;;;;;;;;;;;;;;;;;5027557;28;15096;-53
2020/12/20 13:08:46;;;;;;;;;;;;;;;;;;5028881;28;17462;-51
2020/12/20 13:11:11;;;;;;;;;;;;;;;;;;5027735;28;14039;-54
2020/12/20 13:13:37;;;;;;;;;;;;;;;;;;5026402;28;8824;-58
2020/12/20 13:16:02;;;;;;;;;;;;;;;;;;5031911;28;7825;-50
2020/12/20 13:18:27;;;;;;;;;;;;;;;;;;5024581;28;7355;-50
2020/12/20 13:20:52;;;;;;;;;;;;;;;;;;5024783;28;13901;-55
2020/12/20 13:23:18;;;;;;;;;;;;;;;;;;5032071;28;13803;-47
2020/12/20 13:25:43;;;;;;;;;;;;;;;;;;5031138;28;17015;-51
2020/12/20 13:28:09;;;;;;;;;;;;;;;;;;5026549;28;4100;-52
2020/12/20 13:30:34;;;;;;;;;;;;;;;;;;5024994;28;9472;-47
2020/12/20 13:32:59;;;;;;;;;;;;;;;;;;5030047;28;5927;-48
2020/12/20 13:35:25;;;;;;;;;;;;;;;;;;5032175;28;14042;-54
2020/12/20 13:37:50;;;;;;;;;;;;;;;;;;5030775;28;11204;-48
2020/12/20 13:40:15;;;;;;;;;;;;;;;;;;5032801;28;1193;-52
2020/12/20 13:42:41;;;;;;;;;;;;;;;;;;5039231;28;15072;-51
2020/12/20 13:45:06;;;;;;;;;;;;;;;;;;5025917;28;9536;-53
2020/12/20 13:47:31;;;;;;;;;;;;;;;;;;5026721;28;14937;-48
2020/12/20 13:49:57;;;;;;;;;;;;;;;;;;5037004;28;10829;-52
2020/12/20 13:52:22;;;;;;;;;;;;;;;;;;5033159;28;4318;-51
2020/12/20 13:54:47;;;;;;;;;;;;;;;;;;5029545;28;18468;-49
2020/12/20 13:57:16;;;;;;;;;;;;;;;;;;5010827;28;14359;-48
2020/12/20 13:59:41;;;;;;;;;;;;;;;;;;5029252;28;16297;-51
2020/12/20 14:02:06;;;;;;;;;;;;;;;;;;5038760;28;15793;-46
2020/12/20 14:04:32;;;;;;;;;;;;;;;;;;5030084;28;7939;-49
2020/12/20 14:06:57;;;;;;;;;;;;;;;;;;5028324;28;9764;-50
2020/12/20 14:09:22;;;;;;;;;;;;;;;;;;5031883;28;11426;-50
2020/12/20 14:11:49;;;;;;;;;;;;;;;;;;5025400;28;11976;-51
2020/12/20 14:14:14;;;;;;;;;;;;;;;;;;5029971;28;10747;-49
2020/12/20 14:16:39;;;;;;;;;;;;;;;;;;5027372;28;11094;-56
2020/12/20 14:19:04;;;;;;;;;;;;;;;;;;5024169;28;4543;-52
2020/12/20 14:21:30;;;;;;;;;;;;;;;;;;5020222;28;15750;-56
2020/12/20 14:23:55;;;;;;;;;;;;;;;;;;5026030;28;11970;-56
2020/12/20 14:26:20;;;;;;;;;;;;;;;;;;5032602;28;12675;-56
2020/12/20 14:28:46;;;;;;;;;;;;;;;;;;5037783;28;15206;-50
2020/12/20 14:31:15;;;;;;;;;;;;;;;;;;5026441;28;4065;-57
2020/12/20 14:33:40;;;;;;;;;;;;;;;;;;5027013;28;10843;-57
2020/12/20 14:36:09;;;;;;;;;;;;;;;;;;5027940;28;8235;-51
2020/12/20 14:38:38;;;;;;;;;;;;;;;;;;5024628;28;13477;-52
2020/12/20 14:41:06;;;;;;;;;;;;;;;;;;5026393;28;14586;-53
2020/12/20 14:43:31;;;;;;;;;;;;;;;;;;5029208;28;13682;-50
2020/12/20 14:45:56;;;;;;;;;;;;;;;;;;5033269;28;7272;-58
2020/12/20 14:48:21;;;;;;;;;;;;;;;;;;5030322;28;12193;-45
2020/12/20 14:50:47;;;;;;;;;;;;;;;;;;5026766;28;15731;-56
2020/12/20 14:53:12;;;;;;;;;;;;;;;;;;5033679;28;10796;-50
2020/12/20 14:55:37;;;;;;;;;;;;;;;;;;5034302;28;14414;-51
2020/12/20 14:58:02;;;;;;;;;;;;;;;;;;5026535;28;10148;-52
2020/12/20 15:00:28;;;;;;;;;;;;;;;;;;5024242;28;13907;-52
2020/12/20 15:02:54;;;;;;;;;;;;;;;;;;5025269;28;13155;-49
2020/12/20 15:05:19;;;;;;;;;;;;;;;;;;5026161;28;10823;-49
2020/12/20 15:07:45;;;;;;;;;;;;;;;;;;5027189;28;15932;-51
2020/12/20 15:10:10;;;;;;;;;;;;;;;;;;5030380;28;4175;-49
2020/12/20 15:12:35;;;;;;;;;;;;;;;;;;5027366;28;11528;-50
2020/12/20 15:15:02;;;;;;;;;;;;;;;;;;5025507;28;12980;-59
2020/12/20 15:17:27;;;;;;;;;;;;;;;;;;5031369;28;12021;-52
2020/12/20 15:19:52;;;;;;;;;;;;;;;;;;5027913;28;15399;-45
2020/12/20 15:22:18;;;;;;;;;;;;;;;;;;5032312;28;3862;-48
2020/12/20 15:24:43;;;;;;;;;;;;;;;;;;5024088;28;14690;-53
2020/12/20 15:27:08;;;;;;;;;;;;;;;;;;5019068;28;15248;-47
2020/12/20 15:29:34;;;;;;;;;;;;;;;;;;5027256;28;11631;-50
2020/12/20 15:31:59;;;;;;;;;;;;;;;;;;5022323;28;9291;-50
2020/12/20 15:34:24;;;;;;;;;;;;;;;;;;5032748;28;4221;-53
2020/12/20 15:36:53;;;;;;;;;;;;;;;;;;5024597;28;14631;-51
2020/12/20 15:39:19;;;;;;;;;;;;;;;;;;5024855;28;14805;-56
2020/12/20 15:41:44;;;;;;;;;;;;;;;;;;5022897;28;10839;-49
2020/12/20 15:44:09;;;;;;;;;;;;;;;;;;5026942;28;12461;-45
2020/12/20 15:46:34;;;;;;;;;;;;;;;;;;5024571;28;12390;-46
2020/12/20 15:49:00;;;;;;;;;;;;;;;;;;5026320;28;10804;-53
2020/12/20 15:51:26;;;;;;;;;;;;;;;;;;5024326;28;16192;-53
2020/12/20 15:53:51;;;;;;;;;;;;;;;;;;5025277;28;14040;-46
2020/12/20 15:56:16;;;;;;;;;;;;;;;;;;5023963;28;14300;-57
2020/12/20 15:58:42;;;;;;;;;;;;;;;;;;5020414;28;14425;-52
2020/12/20 16:01:07;;;;;;;;;;;;;;;;;;5023733;28;9311;-50
2020/12/20 16:03:32;;;;;;;;;;;;;;;;;;5023368;28;9450;-50
2020/12/20 16:05:58;;;;;;;;;;;;;;;;;;5029878;28;10506;-54
2020/12/20 16:08:23;;;;;;;;;;;;;;;;;;5026194;28;9595;-54
2020/12/20 16:10:49;;;;;;;;;;;;;;;;;;5025829;28;9268;-51
2020/12/20 16:13:14;;;;;;;;;;;;;;;;;;5021431;28;4245;-52
2020/12/20 16:15:39;;;;;;;;;;;;;;;;;;5025607;28;14751;-50
2020/12/20 16:18:05;;;;;;;;;;;;;;;;;;5031198;28;10890;-48
2020/12/20 16:20:30;;;;;;;;;;;;;;;;;;5037031;28;7271;-54
2020/12/20 16:22:56;;;;;;;;;;;;;;;;;;5031111;28;16819;-50
2020/12/20 16:25:21;;;;;;;;;;;;;;;;;;5012981;28;4239;-51
2020/12/20 16:27:47;;;;;;;;;;;;;;;;;;5029363;28;16877;-57
2020/12/20 16:30:12;;;;;;;;;;;;;;;;;;5027473;28;15089;-50
2020/12/20 16:32:38;;;;;;;;;;;;;;;;;;5022684;28;13584;-56
2020/12/20 16:35:03;;;;;;;;;;;;;;;;;;5025498;28;14120;-56
2020/12/20 16:37:28;;;;;;;;;;;;;;;;;;5028410;28;4149;-54
2020/12/20 16:39:54;;;;;;;;;;;;;;;;;;5034957;28;9685;-54
2020/12/20 16:42:19;;;;;;;;;;;;;;;;;;5033430;28;10582;-48
2020/12/20 16:44:45;;;;;;;;;;;;;;;;;;5032132;28;14573;-51
2020/12/20 16:47:10;;;;;;;;;;;;;;;;;;5034115;28;14061;-55